createdAt,value
2023-04-26T00:00:48.894Z,4.68
2023-04-26T00:03:16.116Z,3.90
2023-04-26T00:05:43.505Z,3.95
2023-04-26T00:08:10.652Z,4.78
2023-04-26T00:10:37.465Z,3.63
2023-04-26T00:13:04.520Z,4.57
2023-04-26T00:15:32.184Z,3.78
2023-04-26T00:17:59.321Z,4.55
2023-04-26T00:20:26.178Z,4.47
2023-04-26T00:22:53.274Z,4.32
2023-04-26T00:25:20.075Z,4.20
2023-04-26T00:27:47.100Z,4.28
2023-04-26T00:30:14.412Z,4.65
2023-04-26T00:32:41.467Z,3.97
2023-04-26T00:35:09.070Z,4.65
2023-04-26T00:37:36.216Z,3.85
2023-04-26T00:40:03.263Z,4.45
2023-04-26T00:42:30.402Z,4.32
2023-04-26T00:44:57.788Z,4.18
2023-04-26T00:47:25.990Z,4.80
2023-04-26T00:49:53.254Z,5.15
2023-04-26T00:52:20.454Z,4.80
2023-04-26T00:54:49.217Z,4.00
2023-04-26T00:57:16.337Z,4.88
2023-04-26T00:59:43.132Z,4.47
2023-04-26T01:02:10.242Z,4.93
2023-04-26T01:04:37.733Z,4.90
2023-04-26T01:07:05.481Z,4.68
2023-04-26T01:09:32.976Z,4.20
2023-04-26T01:12:01.139Z,4.35
2023-04-26T01:14:28.905Z,4.57
2023-04-26T01:16:57.635Z,4.72
2023-04-26T01:19:25.629Z,4.50
2023-04-26T01:21:52.821Z,4.45
2023-04-26T01:24:19.617Z,5.40
2023-04-26T01:26:46.896Z,4.43
2023-04-26T01:29:19.858Z,4.38
2023-04-26T01:31:48.036Z,5.32
2023-04-26T01:34:15.197Z,4.70
2023-04-26T01:36:42.642Z,4.85
2023-04-26T01:39:09.669Z,4.20
2023-04-26T01:41:36.852Z,4.50
2023-04-26T01:44:03.947Z,4.35
2023-04-26T01:46:31.047Z,4.75
2023-04-26T01:48:57.927Z,4.75
2023-04-26T01:51:25.002Z,4.50
2023-04-26T01:53:51.796Z,4.85
2023-04-26T01:56:19.905Z,4.55
2023-04-26T01:58:46.767Z,5.00
2023-04-26T02:01:13.871Z,5.03
2023-04-26T02:03:40.852Z,4.63
2023-04-26T02:06:08.177Z,4.03
2023-04-26T02:08:36.599Z,3.83
2023-04-26T02:11:03.759Z,4.38
2023-04-26T02:13:31.186Z,3.95
2023-04-26T02:15:59.379Z,4.25
2023-04-26T02:18:26.820Z,4.05
2023-04-26T02:20:53.931Z,3.97
2023-04-26T02:23:20.798Z,4.13
2023-04-26T02:25:48.869Z,4.57
2023-04-26T02:28:18.808Z,3.72
2023-04-26T02:30:45.870Z,3.75
2023-04-26T02:33:12.677Z,3.50
2023-04-26T02:35:39.751Z,3.53
2023-04-26T02:38:07.389Z,4.07
2023-04-26T02:40:34.451Z,4.22
2023-04-26T02:43:01.641Z,3.80
2023-04-26T02:45:28.754Z,4.00
2023-04-26T02:47:55.749Z,3.67
2023-04-26T02:50:23.269Z,3.45
2023-04-26T02:52:50.075Z,3.17
2023-04-26T02:55:17.411Z,3.83
2023-04-26T02:57:44.272Z,3.20
2023-04-26T03:00:14.106Z,4.03
2023-04-26T03:02:41.377Z,3.70
2023-04-26T03:05:09.654Z,3.30
2023-04-26T03:07:37.056Z,3.28
2023-04-26T03:10:05.210Z,3.67
2023-04-26T03:12:32.029Z,3.20
2023-04-26T03:14:59.144Z,2.80
2023-04-26T03:17:26.027Z,3.67
2023-04-26T03:19:53.094Z,2.95
2023-04-26T03:22:19.844Z,3.33
2023-04-26T03:24:47.689Z,3.58
2023-04-26T03:27:14.520Z,3.38
2023-04-26T03:29:43.887Z,3.05
2023-04-26T03:32:11.174Z,3.03
2023-04-26T03:34:38.370Z,3.40
2023-04-26T03:37:05.232Z,3.25
2023-04-26T03:39:32.322Z,2.92
2023-04-26T03:41:59.180Z,3.42
2023-04-26T03:44:26.310Z,2.80
2023-04-26T03:46:53.510Z,2.83
2023-04-26T03:49:21.168Z,3.15
2023-04-26T03:51:47.997Z,3.00
2023-04-26T03:54:16.232Z,3.28
2023-04-26T03:56:43.019Z,2.78
2023-04-26T03:59:10.190Z,3.67
2023-04-26T04:01:37.207Z,3.75
2023-04-26T04:04:04.565Z,3.40
2023-04-26T04:06:32.833Z,3.63
2023-04-26T04:08:59.898Z,3.58
2023-04-26T04:11:26.951Z,3.10
2023-04-26T04:13:53.981Z,3.30
2023-04-26T04:16:26.736Z,3.45
2023-04-26T04:18:56.654Z,3.90
2023-04-26T04:21:23.405Z,3.60
2023-04-26T04:23:50.468Z,3.25
2023-04-26T04:26:17.582Z,3.72
2023-04-26T04:28:45.724Z,2.92
2023-04-26T04:31:13.126Z,3.83
2023-04-26T04:33:40.410Z,3.65
2023-04-26T04:36:08.329Z,3.65
2023-04-26T04:38:36.114Z,3.05
2023-04-26T04:41:02.944Z,3.28
2023-04-26T04:43:30.093Z,3.58
2023-04-26T04:45:56.865Z,3.08
2023-04-26T04:48:23.898Z,2.47
2023-04-26T04:50:50.849Z,3.30
2023-04-26T04:53:17.994Z,3.35
2023-04-26T04:55:44.946Z,3.20
2023-04-26T04:58:12.365Z,3.78
2023-04-26T05:00:39.107Z,4.03
2023-04-26T05:03:08.643Z,2.90
2023-04-26T05:05:35.771Z,3.03
2023-04-26T05:08:02.882Z,4.50
2023-04-26T05:10:29.647Z,3.80
2023-04-26T05:12:56.881Z,4.00
2023-04-26T05:15:24.037Z,3.50
2023-04-26T05:17:51.651Z,5.03
2023-04-26T05:20:18.508Z,5.00
2023-04-26T05:22:46.820Z,4.63
2023-04-26T05:25:14.113Z,4.68
2023-04-26T05:27:41.254Z,4.82
2023-04-26T05:30:08.652Z,4.07
2023-04-26T05:32:35.818Z,4.82
2023-04-26T05:35:02.775Z,4.43
2023-04-26T05:37:29.953Z,4.03
2023-04-26T05:39:56.752Z,4.28
2023-04-26T05:42:23.804Z,3.83
2023-04-26T05:44:50.672Z,4.53
2023-04-26T05:47:17.809Z,3.58
2023-04-26T05:49:44.587Z,3.97
2023-04-26T05:52:11.704Z,3.63
2023-04-26T05:54:38.509Z,3.65
2023-04-26T05:57:08.476Z,3.78
2023-04-26T05:59:38.053Z,4.25
2023-04-26T06:02:05.386Z,2.97
2023-04-26T06:04:32.794Z,3.58
2023-04-26T06:07:00.569Z,2.88
2023-04-26T06:09:27.436Z,3.80
2023-04-26T06:11:54.600Z,4.13
2023-04-26T06:14:30.000Z,3.90
2023-04-26T06:16:58.140Z,2.65
2023-04-26T06:19:25.108Z,3.63
2023-04-26T06:21:54.921Z,2.70
2023-04-26T06:24:23.208Z,2.83
2023-04-26T06:26:50.332Z,3.83
2023-04-26T06:29:17.330Z,2.75
2023-04-26T06:31:44.513Z,2.88
2023-04-26T06:34:11.434Z,2.97
2023-04-26T06:36:38.487Z,2.70
2023-04-26T06:39:05.272Z,3.58
2023-04-26T06:41:32.370Z,3.17
2023-04-26T06:43:59.209Z,2.65
2023-04-26T06:46:29.246Z,2.78
2023-04-26T06:48:56.264Z,2.72
2023-04-26T06:51:23.414Z,2.60
2023-04-26T06:53:53.209Z,3.67
2023-04-26T06:56:20.748Z,2.65
2023-04-26T06:59:02.651Z,2.25
2023-04-26T07:01:33.864Z,2.60
2023-04-26T07:04:07.870Z,2.85
2023-04-26T07:06:35.896Z,2.42
2023-04-26T07:09:03.287Z,2.22
2023-04-26T07:11:31.560Z,1.90
2023-04-26T07:13:58.390Z,2.17
2023-04-26T07:16:27.051Z,2.80
2023-04-26T07:18:58.108Z,2.13
2023-04-26T07:21:26.775Z,1.80
2023-04-26T07:23:55.692Z,1.92
2023-04-26T07:26:23.460Z,1.60
2023-04-26T07:28:53.897Z,1.83
2023-04-26T07:31:21.555Z,1.73
2023-04-26T07:33:49.043Z,2.05
2023-04-26T07:36:16.228Z,1.73
2023-04-26T07:38:43.062Z,1.60
2023-04-26T07:41:10.320Z,1.88
2023-04-26T07:43:37.839Z,2.00
2023-04-26T07:46:05.082Z,2.00
2023-04-26T07:48:32.046Z,1.88
2023-04-26T07:51:08.096Z,2.05
2023-04-26T07:53:35.419Z,1.67
2023-04-26T07:56:06.052Z,2.55
2023-04-26T07:58:33.093Z,2.45
2023-04-26T08:01:00.897Z,2.03
2023-04-26T08:03:28.486Z,2.80
2023-04-26T08:05:56.057Z,2.03
2023-04-26T08:08:23.171Z,2.25
2023-04-26T08:10:50.783Z,1.90
2023-04-26T08:13:17.597Z,2.47
2023-04-26T08:15:44.797Z,1.65
2023-04-26T08:18:11.774Z,2.03
2023-04-26T08:20:39.365Z,2.70
2023-04-26T08:23:06.192Z,1.90
2023-04-26T08:25:34.954Z,1.50
2023-04-26T08:28:02.407Z,2.58
2023-04-26T08:30:29.672Z,2.40
2023-04-26T08:32:56.785Z,1.90
2023-04-26T08:35:23.939Z,1.50
2023-04-26T08:37:51.844Z,1.60
2023-04-26T08:40:23.857Z,1.85
2023-04-26T08:42:52.708Z,1.63
2023-04-26T08:45:21.102Z,2.20
2023-04-26T08:47:53.645Z,1.80
2023-04-26T08:50:22.728Z,2.00
2023-04-26T08:52:51.544Z,2.00
2023-04-26T08:55:22.582Z,2.10
2023-04-26T08:57:50.877Z,1.60
2023-04-26T09:00:19.428Z,1.95
2023-04-26T09:02:48.716Z,1.50
2023-04-26T09:05:16.162Z,1.55
2023-04-26T09:07:45.462Z,1.85
2023-04-26T09:10:13.694Z,1.52
2023-04-26T09:12:41.662Z,1.98
2023-04-26T09:15:09.462Z,1.80
2023-04-26T09:17:38.568Z,1.17
2023-04-26T09:20:29.326Z,1.70
2023-04-26T09:23:07.158Z,1.52
2023-04-26T09:25:37.753Z,2.05
2023-04-26T09:28:18.505Z,2.00
2023-04-26T09:30:45.739Z,1.50
2023-04-26T09:33:12.685Z,2.33
2023-04-26T09:35:41.420Z,1.73
2023-04-26T09:38:18.698Z,2.13
2023-04-26T09:40:48.125Z,1.40
2023-04-26T09:43:22.059Z,1.58
2023-04-26T09:45:56.243Z,1.48
2023-04-26T09:48:31.438Z,1.52
2023-04-26T09:51:09.131Z,2.55
2023-04-26T09:53:38.762Z,1.50
2023-04-26T09:56:08.783Z,1.30
2023-04-26T09:59:02.245Z,2.65
2023-04-26T10:01:30.414Z,1.90
2023-04-26T10:04:00.895Z,1.08
2023-04-26T10:06:28.516Z,1.55
2023-04-26T10:08:56.134Z,2.63
2023-04-26T10:11:24.697Z,1.80
2023-04-26T10:13:51.901Z,1.88
2023-04-26T10:16:21.322Z,1.67
2023-04-26T10:18:49.368Z,1.45
2023-04-26T10:21:22.687Z,1.17
2023-04-26T10:23:50.024Z,1.10
2023-04-26T10:26:53.126Z,1.50
2023-04-26T10:29:46.193Z,1.60
2023-04-26T10:32:17.320Z,1.77
2023-04-26T10:34:44.457Z,1.77
2023-04-26T10:37:13.666Z,1.40
2023-04-26T10:39:42.411Z,2.47
2023-04-26T10:42:26.602Z,1.30
2023-04-26T10:45:00.567Z,1.73
2023-04-26T10:47:32.347Z,1.10
2023-04-26T10:50:05.851Z,0.60
2023-04-26T10:52:34.022Z,1.98
2023-04-26T10:55:02.491Z,1.80
2023-04-26T10:57:50.615Z,0.80
2023-04-26T11:00:31.356Z,1.13
2023-04-26T11:03:08.892Z,1.02
2023-04-26T11:06:06.052Z,1.25
2023-04-26T11:08:34.368Z,1.00
2023-04-26T11:11:12.190Z,0.80
2023-04-26T11:13:43.470Z,1.55
2023-04-26T11:16:15.265Z,1.08
2023-04-26T11:18:46.565Z,1.08
2023-04-26T11:21:17.667Z,1.10
2023-04-26T11:23:55.097Z,1.10
2023-04-26T11:26:22.126Z,0.90
2023-04-26T11:28:49.316Z,1.27
2023-04-26T11:31:18.741Z,1.00
2023-04-26T11:33:46.457Z,1.00
2023-04-26T11:36:14.776Z,2.13
2023-04-26T11:38:41.980Z,1.30
2023-04-26T11:41:10.503Z,0.80
2023-04-26T11:43:39.069Z,1.10
2023-04-26T11:46:07.495Z,1.42
2023-04-26T11:48:36.725Z,1.10
2023-04-26T11:51:05.056Z,2.35
2023-04-26T11:53:42.597Z,1.63
2023-04-26T11:56:19.806Z,1.33
2023-04-26T11:58:52.766Z,1.30
2023-04-26T12:01:22.061Z,1.85
2023-04-26T12:03:53.907Z,1.30
2023-04-26T12:06:29.250Z,1.30
2023-04-26T12:08:57.086Z,1.40
2023-04-26T12:11:23.911Z,1.05
2023-04-26T12:13:51.077Z,1.98
2023-04-26T12:16:26.433Z,1.08
2023-04-26T12:18:55.296Z,0.93
2023-04-26T12:21:22.475Z,1.13
2023-04-26T12:23:49.912Z,1.20
2023-04-26T12:26:17.090Z,0.90
2023-04-26T12:28:44.352Z,0.93
2023-04-26T12:31:11.980Z,1.00
2023-04-26T12:33:39.231Z,0.90
2023-04-26T12:36:11.389Z,0.82
2023-04-26T12:38:40.331Z,0.70
2023-04-26T12:41:07.289Z,0.88
2023-04-26T12:43:34.487Z,0.95
2023-04-26T12:46:01.713Z,1.02
2023-04-26T12:48:29.038Z,1.17
2023-04-26T12:50:56.116Z,0.70
2023-04-26T12:53:23.207Z,0.70
2023-04-26T12:55:50.033Z,1.13
2023-04-26T12:58:17.173Z,0.90
2023-04-26T13:00:44.784Z,1.10
2023-04-26T13:03:14.804Z,0.73
2023-04-26T13:05:42.147Z,0.90
2023-04-26T13:08:09.261Z,1.20
2023-04-26T13:10:36.033Z,1.75
2023-04-26T13:13:03.362Z,0.80
2023-04-26T13:15:30.269Z,1.98
2023-04-26T13:17:57.411Z,0.90
2023-04-26T13:20:25.983Z,0.73
2023-04-26T13:22:54.321Z,1.40
2023-04-26T13:25:21.449Z,1.00
2023-04-26T13:27:48.514Z,0.90
2023-04-26T13:30:15.463Z,1.00
2023-04-26T13:32:42.870Z,1.10
2023-04-26T13:35:09.996Z,0.98
2023-04-26T13:37:37.121Z,0.88
2023-04-26T13:40:04.908Z,1.15
2023-04-26T13:42:32.612Z,1.10
2023-04-26T13:45:00.214Z,1.63
2023-04-26T13:47:28.057Z,1.08
2023-04-26T13:49:54.853Z,1.33
2023-04-26T13:52:22.213Z,1.70
2023-04-26T13:54:49.214Z,1.02
2023-04-26T13:57:16.536Z,1.50
2023-04-26T13:59:43.313Z,1.17
2023-04-26T14:02:10.786Z,2.10
2023-04-26T14:04:38.305Z,1.67
2023-04-26T14:07:05.917Z,0.95
2023-04-26T14:09:33.356Z,1.10
2023-04-26T14:12:07.867Z,1.50
2023-04-26T14:14:36.418Z,1.02
2023-04-26T14:17:03.729Z,0.98
2023-04-26T14:19:30.614Z,0.80
2023-04-26T14:21:57.443Z,1.40
2023-04-26T14:24:24.567Z,1.08
2023-04-26T14:26:51.526Z,1.10
2023-04-26T14:29:18.791Z,0.93
2023-04-26T14:31:46.020Z,1.20
2023-04-26T14:34:13.454Z,1.63
2023-04-26T14:36:40.377Z,1.17
2023-04-26T14:39:07.477Z,1.10
2023-04-26T14:41:34.253Z,1.15
2023-04-26T14:44:01.642Z,1.00
2023-04-26T14:46:28.697Z,0.82
2023-04-26T14:48:55.996Z,1.00
2023-04-26T14:51:22.831Z,0.75
2023-04-26T14:53:49.884Z,1.45
2023-04-26T14:56:16.723Z,1.08
2023-04-26T14:58:45.086Z,1.00
2023-04-26T15:01:11.956Z,1.10
2023-04-26T15:03:39.361Z,0.85
2023-04-26T15:06:09.627Z,0.80
2023-04-26T15:08:37.237Z,1.02
2023-04-26T15:11:04.387Z,0.85
2023-04-26T15:13:31.480Z,1.20
2023-04-26T15:15:58.892Z,1.05
2023-04-26T15:18:26.140Z,0.90
2023-04-26T15:20:53.233Z,1.17
2023-04-26T15:23:20.386Z,1.00
2023-04-26T15:25:47.277Z,0.88
2023-04-26T15:28:15.962Z,1.20
2023-04-26T15:30:44.043Z,1.13
2023-04-26T15:33:12.845Z,0.85
2023-04-26T15:35:39.934Z,1.25
2023-04-26T15:38:07.048Z,1.27
2023-04-26T15:43:00.904Z,1.00
2023-04-26T15:45:27.665Z,0.90
2023-04-26T15:47:55.257Z,0.80
2023-04-26T15:50:22.303Z,1.33
2023-04-26T15:52:49.342Z,1.10
2023-04-26T15:55:16.477Z,1.20
2023-04-26T15:57:43.639Z,1.05
2023-04-26T16:00:14.478Z,0.90
2023-04-26T16:02:44.591Z,1.05
2023-04-26T16:05:12.213Z,0.93
2023-04-26T16:07:40.232Z,1.10
2023-04-26T16:10:09.147Z,0.77
2023-04-26T16:12:39.480Z,1.00
2023-04-26T16:15:08.276Z,1.20
2023-04-26T16:17:36.039Z,1.90
2023-04-26T16:20:06.738Z,1.05
2023-04-26T16:22:35.138Z,1.15
2023-04-26T16:25:03.092Z,0.98
2023-04-26T16:27:30.346Z,1.45
2023-04-26T16:29:57.613Z,1.10
2023-04-26T16:32:26.260Z,0.90
2023-04-26T16:34:53.185Z,0.80
2023-04-26T16:37:20.306Z,0.95
2023-04-26T16:39:47.180Z,0.90
2023-04-26T16:42:14.256Z,0.93
2023-04-26T16:44:41.493Z,1.45
2023-04-26T16:47:08.579Z,0.88
2023-04-26T16:49:35.386Z,0.90
2023-04-26T16:52:02.597Z,0.95
2023-04-26T16:54:29.478Z,0.93
2023-04-26T16:56:56.890Z,1.17
2023-04-26T16:59:23.727Z,0.90
2023-04-26T17:01:52.043Z,1.00
2023-04-26T17:04:18.986Z,1.05
2023-04-26T17:06:46.311Z,0.70
2023-04-26T17:09:13.161Z,0.90
2023-04-26T17:11:43.538Z,0.95
2023-04-26T17:14:10.883Z,1.17
2023-04-26T17:16:38.017Z,0.98
2023-04-26T17:19:04.942Z,1.33
2023-04-26T17:21:32.178Z,1.98
2023-04-26T17:23:59.082Z,1.40
2023-04-26T17:26:26.509Z,1.48
2023-04-26T17:28:53.863Z,1.30
2023-04-26T17:31:21.287Z,1.27
2023-04-26T17:33:48.180Z,1.25
2023-04-26T17:36:15.938Z,1.00
2023-04-26T17:38:42.866Z,0.82
2023-04-26T17:41:12.649Z,1.50
2023-04-26T17:43:39.386Z,1.33
2023-04-26T17:46:06.573Z,0.80
2023-04-26T17:48:33.460Z,1.15
2023-04-26T17:51:00.695Z,1.00
2023-04-26T17:53:27.888Z,0.70
2023-04-26T17:55:55.316Z,0.98
2023-04-26T17:58:22.865Z,1.00
2023-04-26T18:00:50.422Z,1.10
2023-04-26T18:03:17.430Z,1.08
2023-04-26T18:05:44.718Z,1.13
2023-04-26T18:08:11.481Z,1.00
2023-04-26T18:10:38.613Z,1.38
2023-04-26T18:13:05.609Z,1.25
2023-04-26T18:15:32.724Z,1.70
2023-04-26T18:17:59.637Z,1.15
2023-04-26T18:20:27.144Z,1.35
2023-04-26T18:22:53.968Z,1.30
2023-04-26T18:25:21.110Z,1.45
2023-04-26T18:27:47.899Z,1.20
2023-04-26T18:30:15.146Z,1.50
2023-04-26T18:32:41.954Z,1.30
2023-04-26T18:35:09.649Z,1.33
2023-04-26T18:37:36.707Z,1.10
2023-04-26T18:40:07.134Z,1.50
2023-04-26T18:42:33.932Z,2.03
2023-04-26T18:45:02.133Z,1.55
2023-04-26T18:47:29.980Z,1.15
2023-04-26T18:49:57.069Z,1.10
2023-04-26T18:52:23.885Z,1.52
2023-04-26T18:54:51.090Z,1.40
2023-04-26T18:57:22.190Z,1.70
2023-04-26T18:59:49.513Z,1.02
2023-04-26T19:02:16.548Z,1.55
2023-04-26T19:04:43.872Z,1.20
2023-04-26T19:07:10.721Z,1.15
2023-04-26T19:09:50.402Z,1.42
2023-04-26T19:12:20.729Z,0.93
2023-04-26T19:14:47.867Z,1.20
2023-04-26T19:17:14.713Z,1.38
2023-04-26T19:19:41.845Z,1.58
2023-04-26T19:22:08.617Z,1.52
2023-04-26T19:24:35.937Z,1.38
2023-04-26T19:27:02.879Z,1.42
2023-04-26T19:29:30.258Z,1.40
2023-04-26T19:31:59.377Z,1.85
2023-04-26T19:34:26.769Z,1.90
2023-04-26T19:36:53.778Z,1.92
2023-04-26T19:39:23.489Z,1.40
2023-04-26T19:41:51.336Z,1.42
2023-04-26T19:44:18.489Z,1.95
2023-04-26T19:46:48.345Z,1.38
2023-04-26T19:49:15.835Z,1.38
2023-04-26T19:51:42.649Z,1.75
2023-04-26T19:54:09.700Z,1.70
2023-04-26T19:56:36.607Z,1.60
2023-04-26T19:59:04.440Z,1.83
2023-04-26T20:01:32.237Z,2.10
2023-04-26T20:03:59.568Z,1.60
2023-04-26T20:06:27.575Z,1.48
2023-04-26T20:08:54.685Z,1.67
2023-04-26T20:11:22.353Z,1.63
2023-04-26T20:13:49.435Z,1.85
2023-04-26T20:16:16.489Z,1.38
2023-04-26T20:18:43.627Z,1.50
2023-04-26T20:21:10.516Z,1.63
2023-04-26T20:23:37.821Z,1.63
2023-04-26T20:26:04.633Z,1.52
2023-04-26T20:28:31.744Z,1.73
2023-04-26T20:30:58.578Z,1.40
2023-04-26T20:33:25.603Z,1.75
2023-04-26T20:35:53.277Z,1.75
2023-04-26T20:38:21.190Z,2.20
2023-04-26T20:40:48.771Z,2.03
2023-04-26T20:43:16.219Z,1.60
2023-04-26T20:45:43.063Z,2.25
2023-04-26T20:48:10.674Z,1.42
2023-04-26T20:50:37.535Z,2.10
2023-04-26T20:53:04.771Z,1.70
2023-04-26T20:55:31.536Z,1.88
2023-04-26T20:57:58.738Z,2.20
2023-04-26T21:00:25.670Z,1.55
2023-04-26T21:02:52.914Z,2.13
2023-04-26T21:05:19.895Z,1.83
2023-04-26T21:07:46.937Z,2.05
2023-04-26T21:10:13.728Z,1.80
2023-04-26T21:12:41.962Z,2.03
2023-04-26T21:15:09.118Z,2.13
2023-04-26T21:17:36.376Z,1.52
2023-04-26T21:20:04.214Z,1.75
2023-04-26T21:22:31.320Z,1.98
2023-04-26T21:24:58.150Z,3.72
2023-04-26T21:27:25.497Z,2.40
2023-04-26T21:29:52.266Z,1.95
2023-04-26T21:32:19.368Z,1.90
2023-04-26T21:34:46.193Z,2.00
2023-04-26T21:37:13.418Z,2.20
2023-04-26T21:39:40.321Z,2.60
2023-04-26T21:42:07.546Z,3.35
2023-04-26T21:44:34.420Z,2.85
2023-04-26T21:47:01.527Z,2.88
2023-04-26T21:49:28.428Z,2.70
2023-04-26T21:51:55.496Z,2.83
2023-04-26T21:54:22.543Z,3.38
2023-04-26T21:56:49.632Z,3.60
2023-04-26T21:59:19.729Z,3.55
2023-04-26T22:01:46.948Z,4.45
2023-04-26T22:04:13.942Z,4.47
2023-04-26T22:06:41.227Z,3.90
2023-04-26T22:09:10.409Z,4.63
2023-04-26T22:11:37.736Z,4.40
2023-04-26T22:14:04.553Z,4.95
2023-04-26T22:16:32.097Z,3.78
2023-04-26T22:19:01.074Z,3.55
2023-04-26T22:21:28.456Z,4.28
2023-04-26T22:23:55.474Z,3.17
2023-04-26T22:26:22.768Z,3.28
2023-04-26T22:28:49.561Z,2.78
2023-04-26T22:31:17.137Z,1.95
2023-04-26T22:33:43.928Z,2.60
2023-04-26T22:36:11.021Z,2.25
2023-04-26T22:38:37.803Z,2.85
2023-04-26T22:41:07.279Z,2.63
2023-04-26T22:43:34.763Z,2.35
2023-04-26T22:46:02.205Z,2.38
2023-04-26T22:48:29.129Z,2.30
2023-04-26T22:50:56.248Z,2.08
2023-04-26T22:53:23.059Z,2.42
2023-04-26T22:55:51.818Z,2.83
2023-04-26T22:58:18.976Z,2.72
2023-04-26T23:00:46.099Z,3.60
2023-04-26T23:03:13.022Z,2.28
2023-04-26T23:05:40.290Z,2.70
2023-04-26T23:08:07.152Z,2.67
2023-04-26T23:10:34.239Z,2.80
2023-04-26T23:13:01.006Z,2.72
2023-04-26T23:15:28.149Z,3.35
2023-04-26T23:17:55.036Z,3.28
2023-04-26T23:20:22.772Z,2.85
2023-04-26T23:22:49.661Z,2.95
2023-04-26T23:25:16.815Z,2.85
2023-04-26T23:27:43.582Z,2.95
2023-04-26T23:30:11.082Z,2.75
2023-04-26T23:32:37.905Z,2.78
2023-04-26T23:35:05.599Z,2.65
2023-04-26T23:37:32.809Z,2.55
2023-04-26T23:40:00.015Z,2.42
2023-04-26T23:42:26.744Z,2.58
2023-04-26T23:44:53.811Z,2.58
2023-04-26T23:47:21.171Z,3.13
2023-04-26T23:49:48.211Z,2.85
2023-04-26T23:52:14.957Z,3.55
2023-04-26T23:54:42.033Z,3.00
2023-04-26T23:57:09.211Z,2.58
2023-04-26T23:59:36.281Z,2.72
